Time,TemperatureF,DewpointF,PressureIn,WindDirection,WindDirectionDegrees,WindSpeedMPH,WindSpeedGustMPH,Humidity,HourlyPrecipIn,Conditions,Clouds,dailyrainin,SoftwareType,DateUTC
2013-07-15 00:01:00,59.2,32.3,24.78,West,271,8.1,10.1,36,0.00,,---,0.00,VWS V14.01,2013-07-15 06:01:00,
2013-07-15 00:06:00,59.0,31.4,24.78,SW,234,5.8,8.1,35,0.00,,---,0.00,VWS V14.01,2013-07-15 06:06:00,
2013-07-15 00:11:00,59.0,31.4,24.78,West,260,7.2,7.2,35,0.00,,---,0.00,VWS V14.01,2013-07-15 06:11:00,
2013-07-15 00:16:00,59.0,32.1,24.78,WSW,250,7.6,10.5,36,0.00,,---,0.00,VWS V14.01,2013-07-15 06:16:00,
2013-07-15 00:21:00,59.0,31.4,24.78,WSW,254,8.1,8.1,35,0.00,,---,0.00,VWS V14.01,2013-07-15 06:21:00,
2013-07-15 00:26:00,59.4,31.7,24.78,WSW,241,7.6,7.6,35,0.00,,---,0.00,VWS V14.01,2013-07-15 06:26:00,
2013-07-15 00:31:00,59.0,31.4,24.78,SW,229,8.1,8.1,35,0.00,,---,0.00,VWS V14.01,2013-07-15 06:31:00,
2013-07-15 00:36:00,59.2,31.6,24.78,West,264,5.8,6.3,35,0.00,,---,0.00,VWS V14.01,2013-07-15 06:36:00,
2013-07-15 00:41:00,59.2,31.6,24.78,WSW,252,5.4,8.1,35,0.00,,---,0.00,VWS V14.01,2013-07-15 06:41:00,
2013-07-15 00:46:00,59.4,31.7,24.78,WSW,242,6.3,6.3,35,0.00,,---,0.00,VWS V14.01,2013-07-15 06:46:00,
2013-07-15 00:51:00,59.2,31.6,24.78,West,261,5.8,8.7,35,0.00,,---,0.00,VWS V14.01,2013-07-15 06:51:00,
2013-07-15 00:56:00,58.8,31.2,24.78,West,268,5.8,6.7,35,0.00,,---,0.00,VWS V14.01,2013-07-15 06:56:00,
2013-07-15 01:01:00,59.0,31.4,24.78,WSW,251,9.6,9.6,35,0.00,,---,0.00,VWS V14.01,2013-07-15 07:01:00,
2013-07-15 01:06:00,58.8,31.2,24.78,WSW,249,10.1,10.1,35,0.00,,---,0.00,VWS V14.01,2013-07-15 07:06:00,
2013-07-15 01:11:00,58.8,31.2,24.78,WSW,248,6.3,6.3,35,0.00,,---,0.00,VWS V14.01,2013-07-15 07:11:00,
2013-07-15 01:16:00,58.6,31.1,24.78,SW,232,8.1,9.6,35,0.00,,---,0.00,VWS V14.01,2013-07-15 07:16:00,
2013-07-15 01:21:00,58.5,30.9,24.78,West,261,8.1,8.1,35,0.00,,---,0.00,VWS V14.01,2013-07-15 07:21:00,
2013-07-15 01:26:00,58.5,30.9,24.78,West,274,5.8,5.8,35,0.00,,---,0.00,VWS V14.01,2013-07-15 07:26:00,
2013-07-15 01:31:00,58.3,30.8,24.78,West,265,6.3,6.3,35,0.00,,---,0.00,VWS V14.01,2013-07-15 07:31:00,
2013-07-15 01:36:00,58.5,30.9,24.78,WSW,251,11.0,11.0,35,0.00,,---,0.00,VWS V14.01,2013-07-15 07:36:00,
2013-07-15 01:41:00,58.5,30.9,24.78,West,275,6.3,6.3,35,0.00,,---,0.00,VWS V14.01,2013-07-15 07:41:00,
2013-07-15 01:46:00,58.3,30.8,24.78,West,267,7.6,10.1,35,0.00,,---,0.00,VWS V14.01,2013-07-15 07:46:00,
2013-07-15 01:51:00,58.3,30.8,24.78,West,263,8.3,9.2,35,0.00,,---,0.00,VWS V14.01,2013-07-15 07:51:00,
2013-07-15 01:56:00,57.9,30.5,24.78,WSW,253,5.8,5.8,35,0.00,,---,0.00,VWS V14.01,2013-07-15 07:56:00,
2013-07-15 02:01:00,57.7,30.3,24.78,WSW,237,8.1,8.1,35,0.00,,---,0.00,VWS V14.01,2013-07-15 08:01:00,
2013-07-15 02:06:00,57.6,30.1,24.78,West,267,5.4,6.3,35,0.00,,---,0.00,VWS V14.01,2013-07-15 08:06:00,
2013-07-15 02:11:00,57.2,29.8,24.78,West,272,5.8,5.8,35,0.00,,---,0.00,VWS V14.01,2013-07-15 08:11:00,
2013-07-15 02:16:00,57.0,30.4,24.78,West,278,5.8,6.3,36,0.00,,---,0.00,VWS V14.01,2013-07-15 08:16:00,
2013-07-15 02:21:00,56.8,30.2,24.78,WSW,246,5.4,6.3,36,0.00,,---,0.00,VWS V14.01,2013-07-15 08:21:00,
2013-07-15 02:26:00,56.7,30.0,24.78,West,279,8.7,8.7,36,0.00,,---,0.00,VWS V14.01,2013-07-15 08:26:00,
2013-07-15 02:31:00,56.3,29.7,24.78,West,277,4.0,5.8,36,0.00,,---,0.00,VWS V14.01,2013-07-15 08:31:00,
2013-07-15 02:36:00,56.3,29.7,24.78,West,264,8.1,8.1,36,0.00,,---,0.00,VWS V14.01,2013-07-15 08:36:00,
2013-07-15 02:41:00,56.3,29.7,24.78,West,266,8.7,8.7,36,0.00,,---,0.00,VWS V14.01,2013-07-15 08:41:00,
2013-07-15 02:46:00,56.5,29.9,24.78,West,264,9.6,9.6,36,0.00,,---,0.00,VWS V14.01,2013-07-15 08:46:00,
2013-07-15 02:51:00,56.3,29.7,24.78,WSW,244,6.3,8.1,36,0.00,,---,0.00,VWS V14.01,2013-07-15 08:51:00,
2013-07-15 02:56:00,55.9,29.4,24.78,West,265,5.8,5.8,36,0.00,,---,0.00,VWS V14.01,2013-07-15 08:56:00,
2013-07-15 03:01:00,55.9,29.4,24.78,WNW,282,3.6,4.0,36,0.00,,---,0.00,VWS V14.01,2013-07-15 09:01:00,
2013-07-15 03:06:00,55.6,29.7,24.78,West,267,7.2,7.2,37,0.00,,---,0.00,VWS V14.01,2013-07-15 09:06:00,
2013-07-15 03:11:00,55.2,29.4,24.78,West,266,5.8,6.3,37,0.00,,---,0.00,VWS V14.01,2013-07-15 09:11:00,
2013-07-15 03:16:00,54.9,29.8,24.78,WSW,252,5.4,8.1,38,0.00,,---,0.00,VWS V14.01,2013-07-15 09:16:00,
2013-07-15 03:21:00,54.7,29.6,24.78,West,267,5.8,5.8,38,0.00,,---,0.00,VWS V14.01,2013-07-15 09:21:00,
2013-07-15 03:26:00,54.5,29.4,24.78,West,277,6.7,8.3,38,0.00,,---,0.00,VWS V14.01,2013-07-15 09:26:00,
2013-07-15 03:31:00,54.5,29.4,24.78,SW,231,8.1,10.5,38,0.00,,---,0.00,VWS V14.01,2013-07-15 09:31:00,
2013-07-15 03:36:00,54.5,30.1,24.78,WSW,245,10.1,10.1,39,0.00,,---,0.00,VWS V14.01,2013-07-15 09:36:00,
2013-07-15 03:41:00,54.3,29.9,24.78,SW,232,6.7,7.6,39,0.00,,---,0.00,VWS V14.01,2013-07-15 09:41:00,
2013-07-15 03:46:00,54.5,30.1,24.78,WSW,238,5.8,5.8,39,0.00,,---,0.00,VWS V14.01,2013-07-15 09:46:00,
2013-07-15 03:51:00,54.7,29.6,24.78,West,279,5.8,8.7,38,0.00,,---,0.00,VWS V14.01,2013-07-15 09:51:00,
2013-07-15 03:56:00,54.5,29.4,24.78,WSW,250,5.4,5.4,38,0.00,,---,0.00,VWS V14.01,2013-07-15 09:56:00,
2013-07-15 04:01:00,54.1,29.8,24.78,West,270,7.6,8.7,39,0.00,,---,0.00,VWS V14.01,2013-07-15 10:01:00,
2013-07-15 04:06:00,54.1,29.8,24.78,WSW,243,5.8,8.7,39,0.00,,---,0.00,VWS V14.01,2013-07-15 10:06:00,
2013-07-15 04:11:00,54.5,29.4,24.78,WSW,254,10.1,11.0,38,0.00,,---,0.00,VWS V14.01,2013-07-15 10:11:00,
2013-07-15 04:16:00,54.9,29.8,24.78,WSW,245,5.8,6.3,38,0.00,,---,0.00,VWS V14.01,2013-07-15 10:16:00,
2013-07-15 04:21:00,54.9,29.8,24.78,West,263,9.6,9.6,38,0.00,,---,0.00,VWS V14.01,2013-07-15 10:21:00,
2013-07-15 04:26:00,54.9,29.8,24.78,SW,236,6.7,8.7,38,0.00,,---,0.00,VWS V14.01,2013-07-15 10:26:00,
2013-07-15 04:31:00,54.5,29.4,24.78,WSW,253,5.4,6.3,38,0.00,,---,0.00,VWS V14.01,2013-07-15 10:31:00,
2013-07-15 04:36:00,53.8,29.4,24.78,West,271,6.3,6.3,39,0.00,,---,0.00,VWS V14.01,2013-07-15 10:36:00,
2013-07-15 04:41:00,53.4,29.7,24.78,West,274,9.2,9.2,40,0.00,,---,0.00,VWS V14.01,2013-07-15 10:41:00,
2013-07-15 04:46:00,52.9,29.8,24.78,WSW,258,5.4,5.8,41,0.00,,---,0.00,VWS V14.01,2013-07-15 10:46:00,
2013-07-15 04:51:00,52.5,29.5,24.78,West,264,3.6,7.2,41,0.00,,---,0.00,VWS V14.01,2013-07-15 10:51:00,
2013-07-15 04:56:00,52.7,30.3,24.78,WSW,250,8.1,8.3,42,0.00,,---,0.00,VWS V14.01,2013-07-15 10:56:00,
2013-07-15 05:01:00,52.7,30.3,24.78,WSW,240,8.1,8.1,42,0.00,,---,0.00,VWS V14.01,2013-07-15 11:01:00,
2013-07-15 05:06:00,52.5,30.1,24.78,WSW,247,8.3,8.3,42,0.00,,---,0.00,VWS V14.01,2013-07-15 11:06:00,
2013-07-15 05:11:00,52.2,29.8,24.78,SW,215,5.8,6.3,42,0.00,,---,0.00,VWS V14.01,2013-07-15 11:11:00,
2013-07-15 05:16:00,52.0,29.6,24.78,SW,226,6.7,9.6,42,0.00,,---,0.00,VWS V14.01,2013-07-15 11:16:00,
2013-07-15 05:21:00,51.8,30.0,24.78,SW,235,11.0,11.0,43,0.00,,---,0.00,VWS V14.01,2013-07-15 11:21:00,
2013-07-15 05:26:00,52.2,30.4,24.78,WSW,250,8.7,8.7,43,0.00,,---,0.00,VWS V14.01,2013-07-15 11:26:00,
2013-07-15 05:31:00,52.3,30.0,24.78,WSW,246,8.3,8.3,42,0.00,,---,0.00,VWS V14.01,2013-07-15 11:31:00,
2013-07-15 05:36:00,52.2,29.8,24.78,WSW,243,7.6,8.1,42,0.00,,---,0.00,VWS V14.01,2013-07-15 11:36:00,
2013-07-15 05:41:00,52.5,30.1,24.78,WSW,250,5.4,6.3,42,0.00,,---,0.00,VWS V14.01,2013-07-15 11:41:00,
2013-07-15 05:46:00,52.5,30.1,24.78,West,279,6.3,10.5,42,0.00,,---,0.00,VWS V14.01,2013-07-15 11:46:00,
2013-07-15 05:51:00,52.5,30.1,24.78,WSW,241,8.1,10.5,42,0.00,,---,0.00,VWS V14.01,2013-07-15 11:51:00,
2013-07-15 05:56:00,52.3,30.0,24.78,West,264,4.9,8.1,42,0.00,,---,0.00,VWS V14.01,2013-07-15 11:56:00,
2013-07-15 06:01:00,51.6,30.4,24.78,WSW,249,6.3,6.7,44,0.00,,---,0.00,VWS V14.01,2013-07-15 12:01:00,
2013-07-15 06:06:00,51.3,30.1,24.78,West,270,8.1,8.1,44,0.00,,---,0.00,VWS V14.01,2013-07-15 12:06:00,
2013-07-15 06:11:00,51.3,30.7,24.78,WSW,256,8.1,8.1,45,0.00,,---,0.00,VWS V14.01,2013-07-15 12:11:00,
2013-07-15 06:16:00,51.6,30.4,24.78,SSW,212,6.3,8.3,44,0.00,,---,0.00,VWS V14.01,2013-07-15 12:16:00,
2013-07-15 06:21:00,51.8,30.6,24.78,West,268,4.0,8.1,44,0.00,,---,0.00,VWS V14.01,2013-07-15 12:21:00,
2013-07-15 06:26:00,51.6,30.4,24.78,SW,232,5.4,7.6,44,0.00,,---,0.00,VWS V14.01,2013-07-15 12:26:00,
2013-07-15 06:31:00,51.4,30.8,24.78,WSW,240,5.8,5.8,45,0.00,,---,0.00,VWS V14.01,2013-07-15 12:31:00,
2013-07-15 06:36:00,51.6,31.0,24.78,WSW,257,5.8,8.7,45,0.00,,---,0.00,VWS V14.01,2013-07-15 12:36:00,
2013-07-15 06:41:00,52.2,30.9,24.78,WSW,245,8.1,8.7,44,0.00,,---,0.00,VWS V14.01,2013-07-15 12:41:00,
2013-07-15 06:46:00,52.2,30.4,24.78,WSW,240,11.4,11.4,43,0.00,,---,0.00,VWS V14.01,2013-07-15 12:46:00,
2013-07-15 06:51:00,52.3,30.5,24.78,WSW,247,7.2,7.2,43,0.00,,---,0.00,VWS V14.01,2013-07-15 12:51:00,
2013-07-15 06:56:00,52.2,30.4,24.78,WSW,238,5.8,8.1,43,0.00,,---,0.00,VWS V14.01,2013-07-15 12:56:00,
2013-07-15 07:01:00,52.0,30.8,24.78,WNW,283,8.3,8.3,44,0.00,,---,0.00,VWS V14.01,2013-07-15 13:01:00,
2013-07-15 07:06:00,52.0,31.3,24.78,WSW,257,5.8,6.7,45,0.00,,---,0.00,VWS V14.01,2013-07-15 13:06:00,
2013-07-15 07:11:00,52.7,32.0,24.78,West,268,7.2,7.2,45,0.00,,---,0.00,VWS V14.01,2013-07-15 13:11:00,
2013-07-15 07:16:00,53.6,31.7,24.78,West,265,5.8,8.7,43,0.00,,---,0.00,VWS V14.01,2013-07-15 13:16:00,
2013-07-15 07:21:00,53.8,31.2,24.78,West,279,8.7,8.7,42,0.00,,---,0.00,VWS V14.01,2013-07-15 13:21:00,
2013-07-15 07:25:00,54.5,31.9,24.78,West,263,6.3,8.1,42,0.00,,---,0.00,VWS V14.01,2013-07-15 13:25:00,
2013-07-15 07:30:00,55.0,32.4,24.78,SW,225,7.6,7.6,42,0.00,,---,0.00,VWS V14.01,2013-07-15 13:30:00,
2013-07-15 07:35:00,55.0,31.8,24.78,NW,319,5.4,8.1,41,0.00,,---,0.00,VWS V14.01,2013-07-15 13:35:00,
2013-07-15 07:40:00,55.4,32.7,24.78,SW,220,7.6,7.6,42,0.00,,---,0.00,VWS V14.01,2013-07-15 13:40:00,
2013-07-15 07:45:00,55.9,32.6,24.78,West,263,10.5,10.5,41,0.00,,---,0.00,VWS V14.01,2013-07-15 13:45:00,
2013-07-15 07:50:00,56.3,32.9,24.78,West,279,5.8,7.6,41,0.00,,---,0.00,VWS V14.01,2013-07-15 13:50:00,
2013-07-15 07:55:00,56.7,33.2,24.78,WSW,248,3.6,4.9,41,0.00,,---,0.00,VWS V14.01,2013-07-15 13:55:00,
2013-07-15 08:00:00,57.2,33.7,24.78,SW,222,5.8,7.6,41,0.00,,---,0.00,VWS V14.01,2013-07-15 14:00:00,
2013-07-15 08:05:00,57.7,33.6,24.78,WSW,250,6.3,7.2,40,0.00,,---,0.00,VWS V14.01,2013-07-15 14:05:00,
2013-07-15 08:10:00,58.3,34.1,24.78,WSW,253,8.3,8.3,40,0.00,,---,0.00,VWS V14.01,2013-07-15 14:10:00,
2013-07-15 08:15:00,59.0,33.5,24.78,West,262,4.0,5.8,38,0.00,,---,0.00,VWS V14.01,2013-07-15 14:15:00,
2013-07-15 08:20:00,59.5,34.6,24.78,NW,305,5.8,5.8,39,0.00,,---,0.00,VWS V14.01,2013-07-15 14:20:00,
2013-07-15 08:25:00,60.1,34.4,24.78,NW,311,3.6,5.4,38,0.00,,---,0.00,VWS V14.01,2013-07-15 14:25:00,
2013-07-15 08:30:00,60.8,34.4,24.78,NNW,327,3.6,4.0,37,0.00,,---,0.00,VWS V14.01,2013-07-15 14:30:00,
2013-07-15 08:35:00,61.3,34.9,24.78,WNW,287,4.0,6.3,37,0.00,,---,0.00,VWS V14.01,2013-07-15 14:35:00,
2013-07-15 08:40:00,62.1,34.8,24.78,WSW,242,5.8,5.8,36,0.00,,---,0.00,VWS V14.01,2013-07-15 14:40:00,
2013-07-15 08:45:00,63.0,34.9,24.78,NW,313,3.6,4.0,35,0.00,,---,0.00,VWS V14.01,2013-07-15 14:45:00,
2013-07-15 08:50:00,63.7,35.5,24.78,NW,312,3.6,6.3,35,0.00,,---,0.00,VWS V14.01,2013-07-15 14:50:00,
2013-07-15 08:55:00,64.4,36.2,24.78,NW,304,5.4,6.3,35,0.00,,---,0.00,VWS V14.01,2013-07-15 14:55:00,
2013-07-15 09:01:00,65.1,36.1,24.78,NW,314,5.4,5.4,34,0.00,,---,0.00,VWS V14.01,2013-07-15 15:01:00,
2013-07-15 09:06:00,65.5,36.4,24.78,NW,305,3.6,4.9,34,0.00,,---,0.00,VWS V14.01,2013-07-15 15:06:00,
2013-07-15 09:11:00,66.0,36.9,24.78,WNW,295,5.8,5.8,34,0.00,,---,0.00,VWS V14.01,2013-07-15 15:11:00,
2013-07-15 09:16:00,66.9,36.9,24.78,WSW,252,4.0,4.0,33,0.00,,---,0.00,VWS V14.01,2013-07-15 15:16:00,
2013-07-15 09:21:00,67.8,37.7,24.75,SW,232,2.7,2.7,33,0.00,,---,0.00,VWS V14.01,2013-07-15 15:21:00,
2013-07-15 09:26:00,68.7,37.7,24.75,SW,232,0.0,0.0,32,0.00,,---,0.00,VWS V14.01,2013-07-15 15:26:00,
2013-07-15 09:31:00,69.6,36.0,24.75,West,276,0.0,0.0,29,0.00,,---,0.00,VWS V14.01,2013-07-15 15:31:00,
2013-07-15 09:36:00,70.3,36.6,24.75,West,277,0.0,0.0,29,0.00,,---,0.00,VWS V14.01,2013-07-15 15:36:00,
2013-07-15 09:41:00,71.1,34.5,24.75,West,277,0.0,0.0,26,0.00,,---,0.00,VWS V14.01,2013-07-15 15:41:00,
2013-07-15 09:46:00,72.0,35.2,24.75,West,280,0.0,0.0,26,0.00,,---,0.00,VWS V14.01,2013-07-15 15:46:00,
2013-07-15 09:51:00,73.0,36.2,24.75,NE,38,0.0,0.0,26,0.00,,---,0.00,VWS V14.01,2013-07-15 15:51:00,
2013-07-15 09:56:00,73.8,35.8,24.75,NE,50,0.0,0.0,25,0.00,,---,0.00,VWS V14.01,2013-07-15 15:56:00,
2013-07-15 10:01:00,74.5,34.3,24.75,NE,39,0.0,0.0,23,0.00,,---,0.00,VWS V14.01,2013-07-15 16:01:00,
2013-07-15 10:06:00,75.2,36.0,24.75,NE,56,3.6,3.6,24,0.00,,---,0.00,VWS V14.01,2013-07-15 16:06:00,
2013-07-15 10:12:00,76.1,35.7,24.75,NE,50,4.0,4.0,23,0.00,,---,0.00,VWS V14.01,2013-07-15 16:12:00,
2013-07-15 10:16:00,76.8,36.2,24.75,ENE,57,3.6,3.6,23,0.00,,---,0.00,VWS V14.01,2013-07-15 16:16:00,
2013-07-15 10:21:00,77.0,35.3,24.75,North,11,2.2,3.6,22,0.00,,---,0.00,VWS V14.01,2013-07-15 16:21:00,
2013-07-15 10:26:00,76.8,36.2,24.75,NE,51,3.1,3.1,23,0.00,,---,0.00,VWS V14.01,2013-07-15 16:26:00,
2013-07-15 10:32:00,77.4,35.6,24.75,NE,52,0.0,0.0,22,0.00,,---,0.00,VWS V14.01,2013-07-15 16:32:00,
2013-07-15 10:37:00,77.7,37.0,24.75,NNE,17,2.7,3.1,23,0.00,,---,0.00,VWS V14.01,2013-07-15 16:37:00,
2013-07-15 10:42:00,77.5,35.7,24.75,NNW,342,2.7,5.8,22,0.00,,---,0.00,VWS V14.01,2013-07-15 16:42:00,
2013-07-15 10:47:00,77.4,35.6,24.75,NW,311,2.7,4.9,22,0.00,,---,0.00,VWS V14.01,2013-07-15 16:47:00,
2013-07-15 10:52:00,77.0,34.1,24.72,WNW,303,2.7,5.4,21,0.00,,---,0.00,VWS V14.01,2013-07-15 16:52:00,
2013-07-15 10:57:00,77.0,35.3,24.72,NW,316,2.7,3.1,22,0.00,,---,0.00,VWS V14.01,2013-07-15 16:57:00,
2013-07-15 11:02:00,78.3,35.2,24.72,WNW,287,4.0,4.0,21,0.00,,---,0.00,VWS V14.01,2013-07-15 17:02:00,
2013-07-15 11:07:00,79.0,35.8,24.72,ESE,104,8.1,8.1,21,0.00,,---,0.00,VWS V14.01,2013-07-15 17:07:00,
2013-07-15 11:12:00,79.7,36.3,24.72,SW,222,8.7,10.1,21,0.00,,---,0.00,VWS V14.01,2013-07-15 17:12:00,
2013-07-15 11:17:00,79.2,34.7,24.72,ESE,122,15.4,15.4,20,0.00,,---,0.00,VWS V14.01,2013-07-15 17:17:00,
2013-07-15 11:22:00,79.7,36.3,24.72,South,185,5.4,6.3,21,0.00,,---,0.00,VWS V14.01,2013-07-15 17:22:00,
2013-07-15 11:27:00,80.1,35.4,24.72,SSE,155,4.9,4.9,20,0.00,,---,0.00,VWS V14.01,2013-07-15 17:27:00,
2013-07-15 11:32:00,80.1,35.4,24.72,SW,232,6.3,14.1,20,0.00,,---,0.00,VWS V14.01,2013-07-15 17:32:00,
2013-07-15 11:37:00,80.6,35.9,24.72,SE,138,5.8,10.5,20,0.00,,---,0.00,VWS V14.01,2013-07-15 17:37:00,
2013-07-15 11:42:00,80.6,35.9,24.72,SSE,149,8.1,10.1,20,0.00,,---,0.00,VWS V14.01,2013-07-15 17:42:00,
2013-07-15 11:47:00,81.1,36.3,24.72,SW,235,3.1,11.0,20,0.00,,---,0.00,VWS V14.01,2013-07-15 17:47:00,
2013-07-15 11:52:00,81.1,36.3,24.72,SSE,153,4.0,8.3,20,0.00,,---,0.00,VWS V14.01,2013-07-15 17:52:00,
2013-07-15 11:57:00,82.9,36.5,24.72,WSW,246,6.3,6.3,19,0.00,,---,0.00,VWS V14.01,2013-07-15 17:57:00,
2013-07-15 12:02:00,82.8,36.3,24.72,SSE,150,10.1,12.8,19,0.00,,---,0.00,VWS V14.01,2013-07-15 18:02:00,
2013-07-15 12:07:00,83.1,32.3,24.72,SSE,163,8.3,10.5,16,0.00,,---,0.00,VWS V14.01,2013-07-15 18:07:00,
2013-07-15 12:12:00,82.8,32.0,24.72,SSW,211,5.8,7.6,16,0.00,,---,0.00,VWS V14.01,2013-07-15 18:12:00,
2013-07-15 12:17:00,83.3,32.5,24.72,SSE,153,6.7,7.2,16,0.00,,---,0.00,VWS V14.01,2013-07-15 18:17:00,
2013-07-15 12:22:00,82.9,32.2,24.72,SSE,155,15.0,17.4,16,0.00,,---,0.00,VWS V14.01,2013-07-15 18:22:00,
2013-07-15 12:27:00,83.7,32.8,24.72,SSE,167,17.0,17.4,16,0.00,,---,0.00,VWS V14.01,2013-07-15 18:27:00,
2013-07-15 12:32:00,84.0,29.8,24.72,ESE,104,6.3,8.1,14,0.00,,---,0.00,VWS V14.01,2013-07-15 18:32:00,
2013-07-15 12:37:00,84.2,28.1,24.72,SSE,165,5.4,5.8,13,0.00,,---,0.00,VWS V14.01,2013-07-15 18:37:00,
2013-07-15 12:42:00,84.2,28.1,24.72,SSE,158,8.3,8.7,13,0.00,,---,0.00,VWS V14.01,2013-07-15 18:42:00,
2013-07-15 12:47:00,84.6,28.4,24.72,SW,219,5.8,6.3,13,0.00,,---,0.00,VWS V14.01,2013-07-15 18:47:00,
2013-07-15 12:52:00,85.1,28.8,24.69,SSE,166,6.3,8.1,13,0.00,,---,0.00,VWS V14.01,2013-07-15 18:52:00,
2013-07-15 12:57:00,85.1,28.8,24.69,SSE,153,10.1,12.3,13,0.00,,---,0.00,VWS V14.01,2013-07-15 18:57:00,
2013-07-15 13:02:00,85.6,29.2,24.69,SSW,201,10.5,11.9,13,0.00,,---,0.00,VWS V14.01,2013-07-15 19:02:00,
2013-07-15 13:07:00,85.5,29.1,24.69,SSW,205,3.6,3.6,13,0.00,,---,0.00,VWS V14.01,2013-07-15 19:07:00,
2013-07-15 13:12:00,86.2,34.8,24.69,West,264,8.3,8.3,16,0.00,,---,0.00,VWS V14.01,2013-07-15 19:12:00,
2013-07-15 13:18:00,86.2,29.6,24.69,SSW,205,4.0,4.0,13,0.00,,---,0.00,VWS V14.01,2013-07-15 19:18:00,
2013-07-15 13:23:00,86.7,30.0,24.69,NE,55,5.4,5.4,13,0.00,,---,0.00,VWS V14.01,2013-07-15 19:23:00,
2013-07-15 13:28:00,87.1,30.3,24.69,WNW,282,4.9,5.8,13,0.00,,---,0.00,VWS V14.01,2013-07-15 19:28:00,
2013-07-15 13:33:00,87.3,30.5,24.69,SSW,210,5.8,5.8,13,0.00,,---,0.00,VWS V14.01,2013-07-15 19:33:00,
2013-07-15 13:38:00,87.4,30.6,24.69,SE,146,13.2,13.2,13,0.00,,---,0.00,VWS V14.01,2013-07-15 19:38:00,
2013-07-15 13:43:00,86.0,29.5,24.69,SE,144,5.8,5.8,13,0.00,,---,0.00,VWS V14.01,2013-07-15 19:43:00,
2013-07-15 13:48:00,84.9,28.6,24.69,West,262,4.0,5.8,13,0.00,,---,0.00,VWS V14.01,2013-07-15 19:48:00,
2013-07-15 13:53:00,84.9,28.6,24.69,WNW,296,7.2,11.4,13,0.00,,---,0.00,VWS V14.01,2013-07-15 19:53:00,
2013-07-15 13:58:00,84.7,28.5,24.69,NW,317,4.0,5.4,13,0.00,,---,0.00,VWS V14.01,2013-07-15 19:58:00,
2013-07-15 14:03:00,84.6,28.4,24.69,West,275,5.8,5.8,13,0.00,,---,0.00,VWS V14.01,2013-07-15 20:03:00,
2013-07-15 14:08:00,84.4,28.2,24.69,WSW,256,5.4,5.8,13,0.00,,---,0.00,VWS V14.01,2013-07-15 20:08:00,
2013-07-15 14:13:00,84.9,28.6,24.69,SW,220,4.0,4.0,13,0.00,,---,0.00,VWS V14.01,2013-07-15 20:13:00,
2013-07-15 14:18:00,85.8,29.4,24.69,WNW,301,4.9,8.3,13,0.00,,---,0.00,VWS V14.01,2013-07-15 20:18:00,
2013-07-15 14:23:00,85.6,29.2,24.69,WSW,244,5.8,5.8,13,0.00,,---,0.00,VWS V14.01,2013-07-15 20:23:00,
2013-07-15 14:29:00,85.1,28.8,24.69,NW,309,2.7,2.7,13,0.00,,---,0.00,VWS V14.01,2013-07-15 20:29:00,
2013-07-15 14:34:00,85.5,29.1,24.69,South,184,3.6,4.0,13,0.00,,---,0.00,VWS V14.01,2013-07-15 20:34:00,
2013-07-15 14:39:00,85.8,29.4,24.69,WSW,251,2.2,7.6,13,0.00,,---,0.00,VWS V14.01,2013-07-15 20:39:00,
2013-07-15 14:44:00,85.5,29.1,24.69,WSW,244,5.4,7.6,13,0.00,,---,0.00,VWS V14.01,2013-07-15 20:44:00,
2013-07-15 14:49:00,84.6,28.4,24.69,NW,311,4.9,5.4,13,0.00,,---,0.00,VWS V14.01,2013-07-15 20:49:00,
2013-07-15 14:54:00,84.0,29.8,24.69,NW,313,0.0,0.0,14,0.00,,---,0.00,VWS V14.01,2013-07-15 20:54:00,
2013-07-15 14:59:00,84.6,28.4,24.69,NW,315,4.9,8.1,13,0.00,,---,0.00,VWS V14.01,2013-07-15 20:59:00,
2013-07-15 15:04:00,84.6,28.4,24.69,West,259,7.6,8.3,13,0.00,,---,0.00,VWS V14.01,2013-07-15 21:04:00,
2013-07-15 15:09:00,84.4,28.2,24.69,West,267,7.6,7.6,13,0.00,,---,0.00,VWS V14.01,2013-07-15 21:09:00,
2013-07-15 15:14:00,84.7,28.5,24.69,NW,322,4.9,7.2,13,0.00,,---,0.00,VWS V14.01,2013-07-15 21:14:00,
2013-07-15 15:19:00,84.6,28.4,24.69,North,353,4.0,6.3,13,0.00,,---,0.00,VWS V14.01,2013-07-15 21:19:00,
2013-07-15 15:24:00,84.7,28.5,24.69,SW,231,3.6,3.6,13,0.00,,---,0.00,VWS V14.01,2013-07-15 21:24:00,
2013-07-15 15:29:00,85.6,29.2,24.69,WNW,287,4.0,6.3,13,0.00,,---,0.00,VWS V14.01,2013-07-15 21:29:00,
2013-07-15 15:34:00,86.2,29.6,24.69,West,272,6.3,6.3,13,0.00,,---,0.00,VWS V14.01,2013-07-15 21:34:00,
2013-07-15 15:39:00,85.5,29.1,24.69,WSW,240,3.6,8.7,13,0.00,,---,0.00,VWS V14.01,2013-07-15 21:39:00,
2013-07-15 15:44:00,85.1,28.8,24.69,NW,304,4.0,6.3,13,0.00,,---,0.00,VWS V14.01,2013-07-15 21:44:00,
2013-07-15 15:49:00,84.7,28.5,24.69,WNW,300,8.3,8.3,13,0.00,,---,0.00,VWS V14.01,2013-07-15 21:49:00,
2013-07-15 15:55:00,84.2,28.1,24.69,NW,310,7.2,7.6,13,0.00,,---,0.00,VWS V14.01,2013-07-15 21:55:00,
2013-07-15 16:00:00,83.8,29.6,24.69,WSW,256,6.3,8.1,14,0.00,,---,0.00,VWS V14.01,2013-07-15 22:00:00,
2013-07-15 16:05:00,84.4,28.2,24.69,SW,229,6.7,6.7,13,0.00,,---,0.00,VWS V14.01,2013-07-15 22:05:00,
2013-07-15 16:10:00,84.7,28.5,24.66,SW,231,5.4,5.4,13,0.00,,---,0.00,VWS V14.01,2013-07-15 22:10:00,
2013-07-15 16:15:00,85.3,28.9,24.66,West,280,6.3,6.3,13,0.00,,---,0.00,VWS V14.01,2013-07-15 22:15:00,
2013-07-15 16:20:00,84.9,28.6,24.66,NW,322,4.9,6.3,13,0.00,,---,0.00,VWS V14.01,2013-07-15 22:20:00,
2013-07-15 16:25:00,84.6,28.4,24.66,WNW,295,5.4,5.8,13,0.00,,---,0.00,VWS V14.01,2013-07-15 22:25:00,
2013-07-15 16:30:00,84.0,29.8,24.66,West,264,4.9,5.4,14,0.00,,---,0.00,VWS V14.01,2013-07-15 22:30:00,
2013-07-15 16:35:00,84.0,29.8,24.66,West,272,3.1,3.1,14,0.00,,---,0.00,VWS V14.01,2013-07-15 22:35:00,
2013-07-15 16:40:00,84.2,28.1,24.66,WSW,245,5.4,6.3,13,0.00,,---,0.00,VWS V14.01,2013-07-15 22:40:00,
2013-07-15 16:45:00,85.1,28.8,24.66,WNW,300,4.0,6.3,13,0.00,,---,0.00,VWS V14.01,2013-07-15 22:45:00,
2013-07-15 16:51:00,85.3,28.9,24.66,NW,315,4.9,6.3,13,0.00,,---,0.00,VWS V14.01,2013-07-15 22:51:00,
2013-07-15 16:56:00,84.9,28.6,24.66,WSW,247,5.4,5.4,13,0.00,,---,0.00,VWS V14.01,2013-07-15 22:56:00,
2013-07-15 17:01:00,85.1,28.8,24.66,WSW,248,6.3,8.3,13,0.00,,---,0.00,VWS V14.01,2013-07-15 23:01:00,
2013-07-15 17:06:00,84.9,28.6,24.66,WSW,254,8.1,8.1,13,0.00,,---,0.00,VWS V14.01,2013-07-15 23:06:00,
2013-07-15 17:11:00,84.2,28.1,24.66,West,281,4.9,6.3,13,0.00,,---,0.00,VWS V14.01,2013-07-15 23:11:00,
2013-07-15 17:16:00,84.0,29.8,24.66,WNW,299,6.3,7.6,14,0.00,,---,0.00,VWS V14.01,2013-07-15 23:16:00,
2013-07-15 17:21:00,83.8,29.6,24.66,West,266,3.1,5.8,14,0.00,,---,0.00,VWS V14.01,2013-07-15 23:21:00,
2013-07-15 17:26:00,84.0,29.8,24.66,West,281,3.6,8.7,14,0.00,,---,0.00,VWS V14.01,2013-07-15 23:26:00,
2013-07-15 17:31:00,84.2,28.1,24.66,SW,234,8.3,8.7,13,0.00,,---,0.00,VWS V14.01,2013-07-15 23:31:00,
2013-07-15 17:36:00,84.7,28.5,24.66,NW,318,6.3,8.1,13,0.00,,---,0.00,VWS V14.01,2013-07-15 23:36:00,
2013-07-15 17:41:00,85.6,29.2,24.66,WNW,300,3.6,3.6,13,0.00,,---,0.00,VWS V14.01,2013-07-15 23:41:00,
2013-07-15 17:46:00,86.0,29.5,24.66,NW,308,9.6,9.6,13,0.00,,---,0.00,VWS V14.01,2013-07-15 23:46:00,
2013-07-15 17:51:00,86.2,29.6,24.66,NW,318,5.8,10.1,13,0.00,,---,0.00,VWS V14.01,2013-07-15 23:51:00,
2013-07-15 17:56:00,86.5,29.9,24.66,West,281,5.4,5.4,13,0.00,,---,0.00,VWS V14.01,2013-07-15 23:56:00,
2013-07-15 18:01:00,86.7,30.0,24.66,WNW,300,8.3,8.3,13,0.00,,---,0.00,VWS V14.01,2013-07-16 00:01:00,
2013-07-15 18:06:00,86.4,29.8,24.66,WNW,291,6.3,8.1,13,0.00,,---,0.00,VWS V14.01,2013-07-16 00:06:00,
2013-07-15 18:11:00,86.5,29.9,24.66,WNW,289,6.3,6.3,13,0.00,,---,0.00,VWS V14.01,2013-07-16 00:11:00,
2013-07-15 18:16:00,86.2,29.6,24.66,West,278,3.6,5.8,13,0.00,,---,0.00,VWS V14.01,2013-07-16 00:16:00,
2013-07-15 18:21:00,86.2,29.6,24.66,WNW,303,2.7,5.4,13,0.00,,---,0.00,VWS V14.01,2013-07-16 00:21:00,
2013-07-15 18:27:00,86.0,29.5,24.66,NW,307,6.3,8.1,13,0.00,,---,0.00,VWS V14.01,2013-07-16 00:27:00,
2013-07-15 18:32:00,85.3,28.9,24.66,WNW,286,5.4,6.3,13,0.00,,---,0.00,VWS V14.01,2013-07-16 00:32:00,
2013-07-15 18:37:00,84.7,28.5,24.66,WSW,254,7.2,7.2,13,0.00,,---,0.00,VWS V14.01,2013-07-16 00:37:00,
2013-07-15 18:42:00,84.6,28.4,24.66,WNW,294,5.8,8.1,13,0.00,,---,0.00,VWS V14.01,2013-07-16 00:42:00,
2013-07-15 18:47:00,84.2,28.1,24.66,SW,218,8.1,8.1,13,0.00,,---,0.00,VWS V14.01,2013-07-16 00:47:00,
2013-07-15 18:52:00,84.2,28.1,24.66,NW,311,5.8,5.8,13,0.00,,---,0.00,VWS V14.01,2013-07-16 00:52:00,
2013-07-15 18:57:00,84.2,28.1,24.66,WNW,302,5.4,5.8,13,0.00,,---,0.00,VWS V14.01,2013-07-16 00:57:00,
2013-07-15 19:02:00,84.4,28.2,24.66,WNW,301,6.3,6.3,13,0.00,,---,0.00,VWS V14.01,2013-07-16 01:02:00,
2013-07-15 19:08:00,84.6,28.4,24.66,WNW,299,5.8,5.8,13,0.00,,---,0.00,VWS V14.01,2013-07-16 01:08:00,
2013-07-15 19:13:00,84.7,28.5,24.66,West,276,3.1,5.4,13,0.00,,---,0.00,VWS V14.01,2013-07-16 01:13:00,
2013-07-15 19:18:00,84.7,28.5,24.66,West,266,8.7,8.7,13,0.00,,---,0.00,VWS V14.01,2013-07-16 01:18:00,
2013-07-15 19:23:00,84.6,28.4,24.66,WNW,291,3.1,6.3,13,0.00,,---,0.00,VWS V14.01,2013-07-16 01:23:00,
2013-07-15 19:28:00,84.6,28.4,24.66,WNW,294,5.8,8.7,13,0.00,,---,0.00,VWS V14.01,2013-07-16 01:28:00,
2013-07-15 19:33:00,84.4,28.2,24.66,WSW,256,8.1,8.1,13,0.00,,---,0.00,VWS V14.01,2013-07-16 01:33:00,
2013-07-15 19:38:00,84.2,28.1,24.66,WNW,295,5.4,6.3,13,0.00,,---,0.00,VWS V14.01,2013-07-16 01:38:00,
2013-07-15 19:43:00,84.0,29.8,24.66,WNW,282,4.9,4.9,14,0.00,,---,0.00,VWS V14.01,2013-07-16 01:43:00,
2013-07-15 19:48:00,84.0,29.8,24.66,West,278,2.7,4.0,14,0.00,,---,0.00,VWS V14.01,2013-07-16 01:48:00,
2013-07-15 19:53:00,83.8,29.6,24.69,WNW,285,2.7,2.7,14,0.00,,---,0.00,VWS V14.01,2013-07-16 01:53:00,
2013-07-15 19:59:00,83.8,29.6,24.69,West,266,5.4,5.4,14,0.00,,---,0.00,VWS V14.01,2013-07-16 01:59:00,
2013-07-15 20:04:00,83.5,29.3,24.69,SW,235,4.0,4.5,14,0.00,,---,0.00,VWS V14.01,2013-07-16 02:04:00,
2013-07-15 20:09:00,83.5,29.3,24.69,West,263,0.0,0.0,14,0.00,,---,0.00,VWS V14.01,2013-07-16 02:09:00,
2013-07-15 20:14:00,83.7,29.5,24.69,East,84,3.1,5.8,14,0.00,,---,0.00,VWS V14.01,2013-07-16 02:14:00,
2013-07-15 20:19:00,83.1,29.0,24.69,NE,54,2.7,5.4,14,0.00,,---,0.00,VWS V14.01,2013-07-16 02:19:00,
2013-07-15 20:24:00,82.6,31.9,24.69,NE,49,4.9,4.9,16,0.00,,---,0.00,VWS V14.01,2013-07-16 02:24:00,
2013-07-15 20:29:00,81.9,32.8,24.69,NE,49,4.5,5.4,17,0.00,,---,0.00,VWS V14.01,2013-07-16 02:29:00,
2013-07-15 20:34:00,81.3,32.4,24.69,North,357,0.0,0.0,17,0.00,,---,0.00,VWS V14.01,2013-07-16 02:34:00,
2013-07-15 20:39:00,80.8,32.0,24.69,ENE,58,2.2,2.7,17,0.00,,---,0.00,VWS V14.01,2013-07-16 02:39:00,
2013-07-15 20:44:00,80.2,31.5,24.69,NNE,24,0.0,0.0,17,0.00,,---,0.00,VWS V14.01,2013-07-16 02:44:00,
2013-07-15 20:49:00,79.7,31.1,24.69,NNE,23,3.1,4.9,17,0.00,,---,0.00,VWS V14.01,2013-07-16 02:49:00,
2013-07-15 20:54:00,78.8,30.4,24.69,North,4,2.2,2.7,17,0.00,,---,0.00,VWS V14.01,2013-07-16 02:54:00,
2013-07-15 20:59:00,77.9,33.6,24.69,North,4,0.0,0.0,20,0.00,,---,0.00,VWS V14.01,2013-07-16 02:59:00,
2013-07-15 21:04:00,77.4,33.2,24.69,ENE,66,4.0,4.0,20,0.00,,---,0.00,VWS V14.01,2013-07-16 03:04:00,
2013-07-15 21:09:00,76.6,32.6,24.69,NE,45,0.0,3.1,20,0.00,,---,0.00,VWS V14.01,2013-07-16 03:09:00,
2013-07-15 21:14:00,75.9,32.0,24.69,NE,46,0.0,0.0,20,0.00,,---,0.00,VWS V14.01,2013-07-16 03:14:00,
2013-07-15 21:19:00,75.6,31.7,24.69,NE,55,0.0,0.0,20,0.00,,---,0.00,VWS V14.01,2013-07-16 03:19:00,
2013-07-15 21:24:00,75.0,32.5,24.72,NE,39,4.9,4.9,21,0.00,,---,0.00,VWS V14.01,2013-07-16 03:24:00,
2013-07-15 21:29:00,74.7,32.2,24.72,ENE,62,0.0,0.0,21,0.00,,---,0.00,VWS V14.01,2013-07-16 03:29:00,
2013-07-15 21:35:00,74.3,31.9,24.72,ENE,73,0.0,0.0,21,0.00,,---,0.00,VWS V14.01,2013-07-16 03:35:00,
2013-07-15 21:40:00,73.9,31.6,24.72,NE,46,0.0,0.0,21,0.00,,---,0.00,VWS V14.01,2013-07-16 03:40:00,
2013-07-15 21:45:00,73.6,31.3,24.72,NE,46,0.0,0.0,21,0.00,,---,0.00,VWS V14.01,2013-07-16 03:45:00,
2013-07-15 21:50:00,73.2,32.1,24.72,West,273,4.0,4.0,22,0.00,,---,0.00,VWS V14.01,2013-07-16 03:50:00,
2013-07-15 21:55:00,72.1,31.2,24.72,WSW,243,3.1,4.9,22,0.00,,---,0.00,VWS V14.01,2013-07-16 03:55:00,
2013-07-15 22:00:00,71.2,31.6,24.72,SW,229,0.0,0.0,23,0.00,,---,0.00,VWS V14.01,2013-07-16 04:00:00,
2013-07-15 22:01:00,71.1,31.4,24.72,SW,229,0.0,0.0,23,0.00,,---,0.00,VWS V14.01,2013-07-16 04:01:00,
2013-07-15 22:06:00,70.7,31.1,24.72,SW,229,0.0,0.0,23,0.00,,---,0.00,VWS V14.01,2013-07-16 04:06:00,
2013-07-15 22:11:00,70.2,31.7,24.72,West,267,3.6,4.9,24,0.00,,---,0.00,VWS V14.01,2013-07-16 04:11:00,
2013-07-15 22:16:00,69.4,32.1,24.72,West,263,0.0,0.0,25,0.00,,---,0.00,VWS V14.01,2013-07-16 04:16:00,
2013-07-15 22:21:00,68.9,31.7,24.75,West,261,2.7,2.7,25,0.00,,---,0.00,VWS V14.01,2013-07-16 04:21:00,
2013-07-15 22:26:00,68.5,32.3,24.75,West,273,2.2,3.1,26,0.00,,---,0.00,VWS V14.01,2013-07-16 04:26:00,
2013-07-15 22:31:00,68.2,32.0,24.75,WNW,288,4.0,4.0,26,0.00,,---,0.00,VWS V14.01,2013-07-16 04:31:00,
2013-07-15 22:36:00,68.2,32.0,24.75,West,261,4.0,4.9,26,0.00,,---,0.00,VWS V14.01,2013-07-16 04:36:00,
2013-07-15 22:41:00,67.3,32.2,24.75,West,265,4.0,4.0,27,0.00,,---,0.00,VWS V14.01,2013-07-16 04:41:00,
2013-07-15 22:46:00,66.7,32.6,24.75,West,274,3.6,3.6,28,0.00,,---,0.00,VWS V14.01,2013-07-16 04:46:00,
2013-07-15 22:51:00,66.2,32.2,24.75,WSW,247,6.3,6.3,28,0.00,,---,0.00,VWS V14.01,2013-07-16 04:51:00,
2013-07-15 22:56:00,66.0,32.9,24.75,WNW,289,3.6,3.6,29,0.00,,---,0.00,VWS V14.01,2013-07-16 04:56:00,
2013-07-15 23:01:00,65.8,33.6,24.75,West,271,0.0,0.0,30,0.00,,---,0.00,VWS V14.01,2013-07-16 05:01:00,
2013-07-15 23:06:00,65.5,33.3,24.75,SE,133,0.0,0.0,30,0.00,,---,0.00,VWS V14.01,2013-07-16 05:06:00,
2013-07-15 23:11:00,65.8,32.7,24.78,ENE,62,0.0,0.0,29,0.00,,---,0.00,VWS V14.01,2013-07-16 05:11:00,
2013-07-15 23:16:00,65.8,36.0,24.78,NW,320,6.3,6.3,33,0.00,,---,0.00,VWS V14.01,2013-07-16 05:16:00,
2013-07-15 23:21:00,66.4,37.9,24.78,WNW,303,0.0,0.0,35,0.00,,---,0.00,VWS V14.01,2013-07-16 05:21:00,
2013-07-15 23:26:00,66.9,39.1,24.78,ENE,76,0.0,0.0,36,0.00,,---,0.00,VWS V14.01,2013-07-16 05:26:00,
2013-07-15 23:31:00,66.9,38.4,24.78,SSE,150,0.0,0.0,35,0.00,,---,0.00,VWS V14.01,2013-07-16 05:31:00,
2013-07-15 23:36:00,66.7,38.2,24.78,East,95,2.2,3.1,35,0.00,,---,0.00,VWS V14.01,2013-07-16 05:36:00,
2013-07-15 23:41:00,66.7,38.2,24.78,NE,41,0.0,0.0,35,0.00,,---,0.00,VWS V14.01,2013-07-16 05:41:00,
2013-07-15 23:46:00,66.4,38.6,24.78,NE,54,3.1,4.0,36,0.00,,---,0.00,VWS V14.01,2013-07-16 05:46:00,
2013-07-15 23:51:00,66.4,38.6,24.78,NE,54,0.0,0.0,36,0.00,,---,0.00,VWS V14.01,2013-07-16 05:51:00,
2013-07-15 23:56:00,66.4,39.3,24.78,SE,142,0.0,0.0,37,0.00,,---,0.00,VWS V14.01,2013-07-16 05:56:00,